Time;durP1;ratioP1;P1;durP2;ratioP2;P2;SDS_P1;SDS_P2;PMS_P1;PMS_P2;Temp;Humidity;BMP_temperature;BMP_pressure;BME280_temperature;BME280_humidity;BME280_pressure;Samples;Min_cycle;Max_cycle;Signal;HPM_P1;HPM_P2
2022/09/17 00:00:36;;;;;;;;;;;;;;;10.19;100.00;99675.66;5044860;28;20020;-84
2022/09/17 00:03:01;;;;;;;32.45;6.00;;;;;;;10.23;100.00;99672.41;5035675;28;19917;-84
2022/09/17 00:05:26;;;;;;;40.30;5.30;;;;;;;10.28;100.00;99671.88;5043665;28;20365;-84
2022/09/17 00:07:52;;;;;;;38.07;5.63;;;;;;;10.27;100.00;99675.53;5044415;28;20195;-84
2022/09/17 00:10:19;;;;;;;50.37;7.13;;;;;;;10.30;100.00;99680.50;5068771;28;20165;-84
2022/09/17 00:12:45;;;;;;;50.50;7.35;;;;;;;10.39;100.00;99678.56;5040789;28;20445;-84
2022/09/17 00:15:11;;;;;;;38.92;7.03;;;;;;;10.40;100.00;99681.06;5033950;28;20107;-83
2022/09/17 00:17:36;;;;;;;30.60;7.15;;;;;;;10.50;100.00;99683.44;5044065;28;20036;-83
2022/09/17 00:20:03;;;;;;;31.02;5.68;;;;;;;10.52;100.00;99690.22;5043602;28;20496;-83
2022/09/17 00:22:29;;;;;;;29.85;6.80;;;;;;;10.52;100.00;99679.56;5044142;28;20043;-83
2022/09/17 00:24:54;;;;;;;38.53;7.60;;;;;;;10.50;100.00;99665.56;5044325;28;20016;-84
2022/09/17 00:27:19;;;;;;;29.13;5.33;;;;;;;10.62;100.00;99687.25;5051504;28;20068;-83
2022/09/17 00:29:47;;;;;;;40.17;5.70;;;;;;;10.59;100.00;99684.16;5043983;28;20048;-83
2022/09/17 00:32:12;;;;;;;35.10;6.10;;;;;;;10.58;100.00;99672.63;5042517;28;20067;-84
2022/09/17 00:34:37;;;;;;;31.03;5.27;;;;;;;10.68;100.00;99669.69;5029324;28;20070;-85
2022/09/17 00:37:03;;;;;;;33.33;6.30;;;;;;;10.64;100.00;99666.53;5044166;28;20099;-81
2022/09/17 00:39:28;;;;;;;33.33;5.03;;;;;;;10.67;100.00;99674.16;5048742;28;20112;-82
2022/09/17 00:41:53;;;;;;;42.43;6.80;;;;;;;10.69;100.00;99679.31;5030808;28;20493;-82
2022/09/17 00:44:43;;;;;;;37.73;7.37;;;;;;;10.72;100.00;99676.28;5057878;28;20543;-82
2022/09/17 00:47:32;;;;;;;42.55;5.25;;;;;;;10.80;100.00;99684.16;5060249;28;20651;-81
2022/09/17 00:50:16;;;;;;;46.70;7.13;;;;;;;10.77;100.00;99676.56;5040466;28;20028;-83
2022/09/17 00:52:44;;;;;;;30.90;6.78;;;;;;;10.81;100.00;99683.13;5037055;28;20032;-84
2022/09/17 00:55:19;;;;;;;45.40;5.13;;;;;;;10.82;100.00;99676.81;5068427;28;20020;-82
2022/09/17 00:57:45;;;;;;;45.83;7.93;;;;;;;10.81;100.00;99677.81;5067375;28;20028;-84
2022/09/17 01:00:13;;;;;;;30.23;5.40;;;;;;;10.83;100.00;99678.44;5051413;28;20024;-83
2022/09/17 01:02:40;;;;;;;32.92;5.80;;;;;;;10.87;100.00;99671.72;5030489;28;20053;-82
2022/09/17 01:05:06;;;;;;;;;;;;;;;10.90;100.00;99682.00;5040342;28;20507;-82
2022/09/17 01:07:34;;;;;;;;;;;;;;;10.91;100.00;99682.81;5060781;28;19913;-84
2022/09/17 01:10:05;;;;;;;36.20;4.97;;;;;;;10.98;100.00;99678.41;5067661;28;19908;-83
2022/09/17 01:12:45;;;;;;;28.88;5.22;;;;;;;10.97;100.00;99672.22;5043660;28;20051;-84
2022/09/17 01:15:48;;;;;;;41.15;6.22;;;;;;;10.97;100.00;99682.06;5042257;28;20116;-84
2022/09/17 01:18:20;;;;;;;40.42;6.78;;;;;;;10.97;100.00;99676.72;5059308;28;20060;-84
2022/09/17 01:21:09;;;;;;;37.90;4.78;;;;;;;11.01;100.00;99669.19;5052319;28;20486;-83
2022/09/17 01:24:07;;;;;;;33.53;6.43;;;;;;;11.05;100.00;99675.75;5057762;28;20037;-83
2022/09/17 01:27:03;;;;;;;32.30;6.70;;;;;;;11.07;100.00;99665.72;4992852;28;20049;-83
2022/09/17 01:29:54;;;;;;;33.92;5.20;;;;;;;11.09;100.00;99666.34;5036017;28;20036;-83
2022/09/17 01:32:30;;;;;;;36.25;5.50;;;;;;;11.12;100.00;99657.94;5043990;28;20047;-82
2022/09/17 01:35:02;;;;;;;44.55;7.45;;;;;;;11.13;100.00;99657.78;5049672;28;20033;-81
2022/09/17 01:37:42;;;;;;;44.28;6.00;;;;;;;11.16;100.00;99660.03;5088966;28;20020;-83
2022/09/17 01:40:47;;;;;;;40.22;6.68;;;;;;;11.10;100.00;99644.00;5042585;28;20025;-83
2022/09/17 01:43:25;;;;;;;41.85;5.43;;;;;;;11.17;100.00;99652.88;4976969;28;20133;-80
2022/09/17 01:45:56;;;;;;;31.33;6.05;;;;;;;11.20;100.00;99645.28;5054840;28;20454;-84
2022/09/17 01:48:27;;;;;;;40.15;5.15;;;;;;;11.19;100.00;99634.78;5060910;28;20032;-85
2022/09/17 01:50:59;;;;;;;45.42;7.10;;;;;;;11.19;100.00;99648.16;5050445;28;20036;-80
2022/09/17 01:53:35;;;;;;;32.53;5.93;;;;;;;11.20;100.00;99639.94;5039852;28;20085;-83
2022/09/17 01:56:02;;;;;;;29.60;3.50;;;;;;;11.24;100.00;99642.22;5039054;28;20036;-83
2022/09/17 01:58:34;;;;;;;34.58;5.70;;;;;;;11.26;100.00;99648.19;5025664;28;20028;-84
2022/09/17 02:01:03;;;;;;;40.50;5.88;;;;;;;11.20;100.00;99642.63;5028865;28;20021;-86
2022/09/17 02:03:36;;;;;;;37.65;5.25;;;;;;;11.22;100.00;99642.44;5053944;28;20476;-84
2022/09/17 02:06:14;;;;;;;37.75;5.72;;;;;;;11.18;100.00;99636.63;5070305;28;20032;-84
2022/09/17 02:08:52;;;;;;;46.08;6.40;;;;;;;11.20;100.00;99649.81;5037560;28;20033;-85
2022/09/17 02:11:18;;;;;;;27.25;5.57;;;;;;;11.15;100.00;99629.03;5062379;28;20044;-84
2022/09/17 02:13:53;;;;;;;33.75;6.10;;;;;;;11.12;100.00;99640.09;5029382;28;20025;-84
2022/09/17 02:16:24;;;;;;;40.63;6.50;;;;;;;11.16;100.00;99637.84;5038517;28;20040;-84
2022/09/17 02:18:52;;;;;;;29.50;5.97;;;;;;;11.20;100.00;99655.16;5047702;28;20119;-85
2022/09/17 02:21:24;;;;;;;33.85;4.55;;;;;;;11.11;100.00;99648.28;5034249;28;20393;-84
2022/09/17 02:24:03;;;;;;;32.55;5.60;;;;;;;11.08;100.00;99662.03;5039420;28;20041;-85
2022/09/17 02:26:31;;;;;;;35.92;6.60;;;;;;;11.08;100.00;99662.03;5041937;28;20033;-82
2022/09/17 02:29:04;;;;;;;39.35;6.25;;;;;;;11.07;100.00;99679.06;5033415;28;20017;-86
2022/09/17 02:31:30;;;;;;;33.10;5.15;;;;;;;11.06;100.00;99685.44;5035491;28;20480;-85
2022/09/17 02:34:00;;;;;;;36.92;6.78;;;;;;;11.01;100.00;99693.22;5046809;28;20047;-81
2022/09/17 02:36:26;;;;;;;32.22;5.45;;;;;;;11.04;100.00;99700.84;5050104;28;20037;-83
2022/09/17 02:39:00;;;;;;;42.35;5.88;;;;;;;11.07;100.00;99705.78;5031715;28;20017;-84
2022/09/17 02:41:42;;;;;;;42.75;5.95;;;;;;;10.97;100.00;99709.59;5070004;28;20043;-86
2022/09/17 02:44:28;;;;;;;40.25;6.10;;;;;;;10.93;100.00;99712.84;5053813;28;20037;-84
2022/09/17 02:47:16;;;;;;;30.77;5.38;;;;;;;10.89;100.00;99693.72;5050358;28;20123;-85
2022/09/17 02:50:03;;;;;;;29.13;5.00;;;;;;;10.92;100.00;99695.16;5048703;28;20032;-86
2022/09/17 02:52:56;;;;;;;28.33;4.40;;;;;;;10.83;100.00;99689.13;5055525;28;20028;-86
2022/09/17 02:55:35;;;;;;;31.88;5.22;;;;;;;10.80;100.00;99689.50;5043637;28;20055;-86
2022/09/17 02:58:16;;;;;;;35.50;4.28;;;;;;;10.70;100.00;99680.97;5044176;28;20047;-86
2022/09/17 03:00:42;;;;;;;34.47;7.30;;;;;;;10.61;100.00;99682.13;5041129;28;20025;-86
2022/09/17 03:03:16;;;;;;;38.05;4.32;;;;;;;10.62;100.00;99689.09;5047515;28;20560;-86
2022/09/17 03:05:43;;;;;;;27.05;4.82;;;;;;;10.56;100.00;99691.50;5046668;28;20098;-86
2022/09/17 03:08:13;;;;;;;28.77;4.75;;;;;;;10.52;100.00;99687.56;5029671;28;20605;-86
2022/09/17 03:10:39;;;;;;;22.52;3.67;;;;;;;10.63;100.00;99694.25;5044387;28;20599;-86
2022/09/17 03:13:04;;;;;;;24.48;5.45;;;;;;;10.65;100.00;99699.41;5027294;28;20107;-86
2022/09/17 03:15:29;;;;;;;31.90;4.30;;;;;;;10.56;100.00;99685.34;5051401;28;20072;-86
2022/09/17 03:17:55;;;;;;;38.57;6.80;;;;;;;10.54;100.00;99695.38;5030337;28;20275;-86
2022/09/17 03:20:20;;;;;;;30.40;4.17;;;;;;;10.62;100.00;99705.94;5046445;28;20029;-86
2022/09/17 03:22:46;;;;;;;30.63;4.90;;;;;;;10.60;100.00;99701.81;5063785;28;20450;-85
2022/09/17 03:25:11;;;;;;;29.17;4.00;;;;;;;10.58;100.00;99699.31;5043674;28;20032;-86
2022/09/17 03:27:36;;;;;;;32.20;4.73;;;;;;;10.59;100.00;99694.84;5041706;28;20052;-86
2022/09/17 03:30:03;;;;;;;35.07;5.10;;;;;;;10.41;100.00;99698.72;5041083;28;20810;-86
2022/09/17 03:32:28;;;;;;;;;;;;;;;10.40;100.00;99697.06;5045397;28;20065;-86
2022/09/17 03:34:53;;;;;;;;;;;;;;;10.36;100.00;99690.44;5045096;28;19995;-86
2022/09/17 03:37:19;;;;;;;33.00;5.47;;;;;;;10.37;100.00;99704.59;5044577;28;19915;-86
2022/09/17 03:39:44;;;;;;;30.63;6.43;;;;;;;10.25;100.00;99693.56;5044346;28;20622;-86
2022/09/17 03:42:10;;;;;;;27.00;4.47;;;;;;;10.26;100.00;99673.88;5043817;28;20028;-86
2022/09/17 03:44:35;;;;;;;32.53;5.10;;;;;;;10.22;100.00;99678.75;5019031;28;20025;-87
2022/09/17 03:47:38;;;;;;;35.07;4.70;;;;;;;10.21;100.00;99677.13;5043623;28;20099;-87
2022/09/17 03:50:05;;;;;;;25.95;3.20;;;;;;;10.20;100.00;99678.09;4944031;29;20035;-86
2022/09/17 03:52:30;;;;;;;26.85;4.07;;;;;;;10.17;100.00;99664.34;4936164;29;20035;-86
2022/09/17 03:54:55;;;;;;;29.87;4.13;;;;;;;10.20;100.00;99655.94;4950914;28;20495;-86
2022/09/17 03:57:21;;;;;;;38.53;4.57;;;;;;;10.25;100.00;99661.53;4939410;28;20140;-86
2022/09/17 03:59:47;;;;;;;24.73;3.90;;;;;;;10.27;100.00;99659.53;4964958;28;20035;-86
2022/09/17 04:02:13;;;;;;;25.50;4.18;;;;;;;10.20;100.00;99656.78;4943973;28;20103;-86
2022/09/17 04:04:38;;;;;;;31.03;4.70;;;;;;;10.18;100.00;99649.97;4953054;28;20046;-86
2022/09/17 04:07:04;;;;;;;25.83;3.60;;;;;;;10.20;100.00;99645.28;4946233;28;20034;-86
2022/09/17 04:09:29;;;;;;;22.65;4.13;;;;;;;10.19;100.00;99643.63;4934631;29;20059;-86
2022/09/17 04:11:55;;;;;;;27.30;4.63;;;;;;;10.22;100.00;99651.25;4957216;28;20085;-86
2022/09/17 04:14:20;;;;;;;35.80;5.32;;;;;;;10.19;100.00;99640.97;4959170;28;20129;-86
2022/09/17 04:16:46;;;;;;;33.63;6.20;;;;;;;10.18;100.00;99644.63;4942284;29;20027;-86
2022/09/17 04:19:11;;;;;;;29.03;4.30;;;;;;;10.18;100.00;99639.31;4958298;28;20062;-86
2022/09/17 04:21:37;;;;;;;27.27;3.90;;;;;;;10.15;100.00;99625.31;4942089;28;20698;-85
2022/09/17 04:24:03;;;;;;;25.17;4.45;;;;;;;10.21;100.00;99639.78;5001305;28;20099;-86
2022/09/17 04:26:29;;;;;;;28.97;4.87;;;;;;;10.22;100.00;99643.25;5052167;28;20025;-86
2022/09/17 04:28:54;;;;;;;24.87;6.20;;;;;;;10.14;100.00;99645.03;5048879;28;20064;-86
2022/09/17 04:31:21;;;;;;;22.63;4.05;;;;;;;10.09;100.00;99635.91;5050393;28;20032;-85
2022/09/17 04:33:46;;;;;;;25.85;4.05;;;;;;;9.99;100.00;99636.19;5044342;28;20036;-85
2022/09/17 04:36:12;;;;;;;20.57;4.17;;;;;;;10.00;100.00;99639.72;5052373;28;20040;-86
2022/09/17 04:38:37;;;;;;;23.33;3.40;;;;;;;9.89;100.00;99619.69;5044294;28;20130;-85
2022/09/17 04:41:05;;;;;;;31.57;7.13;;;;;;;9.89;100.00;99630.34;5043788;28;20020;-86
2022/09/17 04:43:31;;;;;;;28.58;5.10;;;;;;;9.80;100.00;99623.44;5043792;28;20028;-85
2022/09/17 04:45:56;;;;;;;29.67;4.07;;;;;;;9.75;100.00;99625.84;5043808;28;20366;-86
2022/09/17 04:48:21;;;;;;;22.10;4.47;;;;;;;9.72;100.00;99627.03;5044209;28;20752;-86
2022/09/17 04:50:47;;;;;;;26.10;3.57;;;;;;;9.64;100.00;99627.94;5032556;28;20033;-85
2022/09/17 04:53:12;;;;;;;27.73;3.53;;;;;;;9.65;100.00;99642.13;5043554;28;20044;-86
2022/09/17 04:55:38;;;;;;;28.03;3.40;;;;;;;9.61;100.00;99644.31;5044143;28;20027;-85
2022/09/17 04:58:03;;;;;;;25.47;5.10;;;;;;;9.66;100.00;99641.91;5043931;28;20123;-86
2022/09/17 05:00:28;;;;;;;28.77;3.60;;;;;;;9.64;100.00;99633.28;5048910;28;20044;-84
2022/09/17 05:02:54;;;;;;;25.23;3.90;;;;;;;9.63;100.00;99634.28;5039298;28;20089;-85
2022/09/17 05:05:21;;;;;;;28.75;4.63;;;;;;;9.56;100.00;99624.56;5043569;28;20024;-86
2022/09/17 05:07:47;;;;;;;25.05;4.05;;;;;;;9.53;100.00;99631.09;5046389;28;20128;-85
2022/09/17 05:10:15;;;;;;;37.35;3.67;;;;;;;9.44;100.00;99622.34;5037792;28;20052;-85
2022/09/17 05:12:40;;;;;;;26.08;5.28;;;;;;;9.56;100.00;99636.03;5061077;28;20082;-86
2022/09/17 05:15:06;;;;;;;34.77;5.80;;;;;;;9.50;100.00;99636.75;5044587;28;20134;-86
2022/09/17 05:17:31;;;;;;;25.30;3.58;;;;;;;9.47;100.00;99637.94;5052724;28;20488;-85
2022/09/17 05:19:57;;;;;;;28.23;3.67;;;;;;;9.39;100.00;99634.53;5053895;28;20035;-86
2022/09/17 05:22:22;;;;;;;35.03;5.43;;;;;;;9.40;100.00;99647.69;5045909;28;20040;-85
2022/09/17 05:24:48;;;;;;;32.27;6.97;;;;;;;9.38;100.00;99640.88;5054392;28;20545;-86
2022/09/17 05:27:13;;;;;;;23.43;4.40;;;;;;;9.43;100.00;99652.63;5066457;28;20088;-86
2022/09/17 05:29:38;;;;;;;35.23;5.33;;;;;;;9.46;100.00;99659.47;5062799;28;20040;-87
2022/09/17 05:32:05;;;;;;;24.67;3.77;;;;;;;9.58;100.00;99671.31;5028077;28;20492;-86
2022/09/17 05:34:31;;;;;;;22.00;4.15;;;;;;;9.61;100.00;99670.13;5062604;28;20078;-86
2022/09/17 05:36:56;;;;;;;21.35;4.38;;;;;;;9.67;100.00;99672.91;5064735;28;20240;-86
2022/09/17 05:39:24;;;;;;;20.83;4.13;;;;;;;9.70;100.00;99664.53;5044615;28;20884;-86
2022/09/17 05:41:53;;;;;;;22.45;3.53;;;;;;;9.78;100.00;99652.94;5043312;28;20056;-86
2022/09/17 05:44:19;;;;;;;33.17;5.38;;;;;;;9.85;100.00;99661.84;5044080;28;20158;-86
2022/09/17 05:46:45;;;;;;;26.88;4.28;;;;;;;9.88;100.00;99655.31;5043894;28;20036;-86
2022/09/17 05:49:11;;;;;;;32.28;4.55;;;;;;;9.90;100.00;99656.81;5044849;28;20052;-86
2022/09/17 05:51:37;;;;;;;25.98;5.00;;;;;;;9.98;100.00;99660.41;5046827;28;20067;-86
2022/09/17 05:54:02;;;;;;;20.27;4.13;;;;;;;10.03;100.00;99663.34;5063877;28;20029;-86
2022/09/17 05:56:28;;;;;;;24.67;5.03;;;;;;;10.04;100.00;99671.13;5030231;28;20069;-86
2022/09/17 05:58:56;;;;;;;34.57;5.80;;;;;;;10.13;100.00;99674.53;5063837;28;20392;-87
2022/09/17 06:01:22;;;;;;;26.27;4.90;;;;;;;10.12;100.00;99686.22;5044518;28;20028;-86
2022/09/17 06:03:47;;;;;;;24.50;4.97;;;;;;;10.22;100.00;99693.94;5043615;28;20043;-86
2022/09/17 06:06:13;;;;;;;26.13;4.40;;;;;;;10.18;100.00;99690.81;5044601;28;20382;-87
2022/09/17 06:08:38;;;;;;;34.83;4.40;;;;;;;10.18;100.00;99695.31;5046916;28;20173;-86
2022/09/17 06:11:07;;;;;;;30.50;5.73;;;;;;;10.29;100.00;99705.56;5030010;28;20062;-87
2022/09/17 06:13:33;;;;;;;41.15;5.45;;;;;;;10.30;100.00;99705.38;5043546;28;20032;-86
2022/09/17 06:16:00;;;;;;;35.50;4.60;;;;;;;10.34;100.00;99706.63;5042381;28;20140;-86
2022/09/17 06:18:26;;;;;;;21.88;3.88;;;;;;;10.38;100.00;99693.75;5046825;28;20032;-86
2022/09/17 06:20:54;;;;;;;24.48;4.45;;;;;;;10.34;100.00;99695.97;5048217;28;20505;-86
2022/09/17 06:23:20;;;;;;;19.88;4.18;;;;;;;10.37;100.00;99692.09;5061652;28;20031;-85
2022/09/17 06:25:57;;;;;;;28.15;4.03;;;;;;;10.53;100.00;99689.19;5063029;28;20032;-85
2022/09/17 06:28:23;;;;;;;25.75;4.63;;;;;;;10.80;100.00;99686.84;5043545;28;20127;-86
2022/09/17 06:30:51;;;;;;;19.33;4.20;;;;;;;11.82;100.00;99713.19;5024065;28;20070;-88
2022/09/17 06:33:17;;;;;;;22.17;4.60;;;;;;;11.94;100.00;99656.50;5044458;28;20451;-86
2022/09/17 06:35:42;;;;;;;19.30;3.80;;;;;;;12.49;100.00;99638.59;5043573;28;20083;-86
2022/09/17 06:38:07;;;;;;;18.73;5.17;;;;;;;12.52;100.00;99592.69;5036499;28;20040;-86
2022/09/17 06:40:33;;;;;;;17.43;3.20;;;;;;;12.97;100.00;99565.31;5054914;28;20100;-86
2022/09/17 06:42:59;;;;;;;26.00;4.82;;;;;;;13.58;100.00;99553.47;5030426;28;20476;-85
2022/09/17 06:45:26;;;;;;;17.50;3.03;;;;;;;13.65;100.00;99489.91;5047157;28;20508;-86
2022/09/17 06:48:17;;;;;;;28.88;4.68;;;;;;;13.46;100.00;99428.16;5040790;28;20067;-86
2022/09/17 06:50:42;;;;;;;23.73;4.63;;;;;;;13.56;100.00;99395.50;5066811;28;20862;-88
2022/09/17 06:53:08;;;;;;;19.23;5.33;;;;;;;13.96;100.00;99397.13;5039157;28;20025;-88
2022/09/17 06:55:34;;;;;;;23.70;3.58;;;;;;;13.47;100.00;99378.84;5043260;28;20081;-87
2022/09/17 06:57:59;;;;;;;24.63;4.67;;;;;;;13.77;100.00;99399.72;5035057;28;20028;-87
2022/09/17 07:00:25;;;;;;;17.52;5.35;;;;;;;14.11;100.00;99408.34;5051256;28;20537;-85
2022/09/17 07:02:58;;;;;;;27.70;4.28;;;;;;;14.59;100.00;99391.66;5032448;28;20027;-85
2022/09/17 07:05:25;;;;;;;32.70;5.40;;;;;;;14.47;100.00;99324.41;5052966;28;20479;-85
2022/09/17 07:07:51;;;;;;;17.10;3.58;;;;;;;14.18;100.00;99298.25;5045726;28;20028;-86
2022/09/17 07:10:16;;;;;;;20.25;4.18;;;;;;;14.17;100.00;99336.88;5068799;28;20070;-86
2022/09/17 07:12:42;;;;;;;20.10;3.43;;;;;;;14.80;100.00;99370.75;5029433;28;20868;-85
2022/09/17 07:15:10;;;;;;;17.43;3.13;;;;;;;14.76;100.00;99328.22;5060116;28;20408;-85
2022/09/17 07:17:38;;;;;;;22.25;3.63;;;;;;;14.55;100.00;99242.75;5063881;28;20013;-84
2022/09/17 07:20:04;;;;;;;23.05;3.65;;;;;;;14.23;100.00;99236.66;5053721;28;20480;-85
2022/09/17 07:22:29;;;;;;;;;;;;;;;14.25;100.00;99291.75;5037523;28;20502;-84
2022/09/17 07:24:55;;;;;;;;;;;;;;;14.63;100.00;99347.16;5045393;28;19912;-84
2022/09/17 07:27:20;;;;;;;21.00;3.37;;;;;;;14.95;100.00;99353.22;5035190;28;19908;-85
2022/09/17 07:29:46;;;;;;;18.38;4.13;;;;;;;14.80;100.00;99274.03;5041429;28;20107;-84
2022/09/17 07:32:11;;;;;;;15.93;2.30;;;;;;;14.85;100.00;99245.47;5042573;28;20025;-85
2022/09/17 07:34:37;;;;;;;14.38;3.22;;;;;;;14.92;100.00;99207.75;5044955;28;20791;-85
2022/09/17 07:37:02;;;;;;;13.30;2.97;;;;;;;14.94;100.00;99144.69;5044742;28;20052;-86
2022/09/17 07:39:27;;;;;;;9.40;1.73;;;;;;;15.55;100.00;99141.84;5045334;28;20043;-88
2022/09/17 07:41:53;;;;;;;9.43;2.60;;;;;;;15.31;100.00;99114.94;5043147;28;20052;-85
2022/09/17 07:44:18;;;;;;;11.97;2.63;;;;;;;14.60;100.00;99049.50;5043371;28;20036;-86
2022/09/17 07:46:43;;;;;;;12.87;2.97;;;;;;;14.95;100.00;99156.25;5062674;28;20035;-86
2022/09/17 07:49:09;;;;;;;10.80;2.40;;;;;;;14.44;100.00;99061.69;5057205;28;20017;-88
2022/09/17 07:51:34;;;;;;;8.70;2.10;;;;;;;14.66;100.00;99207.06;5074653;28;20005;-85
2022/09/17 07:54:01;;;;;;;17.10;2.23;;;;;;;15.10;100.00;99214.94;5053848;28;20119;-85
2022/09/17 07:56:27;;;;;;;13.85;3.38;;;;;;;14.77;100.00;99117.66;5028558;28;20028;-86
2022/09/17 07:58:52;;;;;;;14.82;2.83;;;;;;;14.74;100.00;99193.31;5044637;28;20032;-86
2022/09/17 08:01:20;;;;;;;9.27;2.58;;;;;;;15.14;100.00;99245.69;5051466;28;20507;-87
2022/09/17 08:03:53;;;;;;;9.35;2.08;;;;;;;15.31;100.00;99068.41;5041592;28;20083;-87
2022/09/17 08:06:25;;;;;;;15.52;1.80;;;;;;;15.61;100.00;99106.72;5026859;28;20412;-87
2022/09/17 08:08:50;;;;;;;9.45;2.10;;;;;;;16.20;100.00;99157.81;5060468;28;20035;-87
2022/09/17 08:11:19;;;;;;;14.37;2.63;;;;;;;16.24;100.00;98905.03;5026302;28;20619;-85
2022/09/17 08:13:49;;;;;;;17.38;2.50;;;;;;;16.01;100.00;98849.47;5041331;28;20516;-86
2022/09/17 08:16:15;;;;;;;16.95;3.55;;;;;;;17.00;100.00;98921.59;5042176;28;20123;-85
2022/09/17 08:18:41;;;;;;;;;;;;;;;17.22;100.00;98821.00;5044779;28;20017;-87
2022/09/17 08:21:09;;;;;;;9.82;2.35;;;;;;;17.09;100.00;98850.00;5052682;28;20444;-87
2022/09/17 08:23:36;;;;;;;12.40;3.60;;;;;;;15.91;100.00;98833.19;5048653;28;20358;-87
2022/09/17 08:26:03;;;;;;;9.30;2.13;;;;;;;15.63;100.00;98959.38;5040538;28;20052;-87
2022/09/17 08:28:30;;;;;;;9.45;2.40;;;;;;;16.82;100.00;99205.66;5041089;28;20017;-87
2022/09/17 08:31:07;;;;;;;13.93;3.33;;;;;;;17.45;100.00;98887.34;5040962;28;20017;-89
2022/09/17 08:33:38;;;;;;;12.40;2.63;;;;;;;16.91;100.00;98582.66;5041224;28;20578;-87
2022/09/17 08:36:05;;;;;;;11.32;2.22;;;;;;;17.28;100.00;98977.22;5040463;28;20119;-85
2022/09/17 08:38:32;;;;;;;14.63;3.97;;;;;;;16.84;100.00;98912.47;5030155;28;20012;-85
2022/09/17 08:41:10;;;;;;;13.10;1.70;;;;;;;16.17;100.00;99004.81;5046745;28;20116;-85
2022/09/17 08:43:46;;;;;;;15.68;4.10;;;;;;;16.17;100.00;99088.28;5021249;28;20043;-84
2022/09/17 08:46:11;;;;;;;14.45;1.80;;;;;;;16.24;100.00;99147.38;5062033;28;20028;-84
2022/09/17 08:49:01;;;;;;;8.47;2.27;;;;;;;16.94;100.00;99229.88;5062863;28;20763;-85
2022/09/17 08:51:57;;;;;;;22.90;3.33;;;;;;;17.29;100.00;99151.47;5036546;28;20028;-87
2022/09/17 08:54:37;;;;;;;13.23;3.10;;;;;;;17.25;100.00;98949.94;5026872;28;20043;-86
2022/09/17 08:57:31;;;;;;;7.25;2.47;;;;;;;18.39;100.00;98891.50;5045191;28;20135;-86
2022/09/17 09:00:12;;;;;;;10.90;1.98;;;;;;;17.20;100.00;98818.56;5040331;28;20517;-86
2022/09/17 09:02:47;;;;;;;13.38;2.83;;;;;;;16.94;100.00;99026.88;5037968;28;20546;-85
2022/09/17 09:05:23;;;;;;;9.27;2.58;;;;;;;16.48;100.00;99063.78;5060530;28;20070;-86
2022/09/17 09:08:00;;;;;;;10.93;2.28;;;;;;;18.25;100.00;99118.00;5044293;28;20048;-86
2022/09/17 09:10:30;;;;;;;15.63;2.25;;;;;;;18.35;100.00;98990.31;5045536;28;20039;-85
2022/09/17 09:12:59;;;;;;;9.82;2.20;;;;;;;17.76;100.00;98912.75;5062961;28;20032;-83
2022/09/17 09:15:42;;;;;;;10.45;2.70;;;;;;;17.49;100.00;98864.19;5047779;28;20043;-84
2022/09/17 09:18:19;;;;;;;10.23;2.30;;;;;;;17.80;96.82;98697.97;5056247;28;20044;-83
2022/09/17 09:20:50;;;;;;;12.13;2.70;;;;;;;16.97;100.00;98865.44;5068116;28;20090;-83
2022/09/17 09:23:26;;;;;;;10.40;2.50;;;;;;;18.56;100.00;99105.63;5046447;28;20037;-82
2022/09/17 09:26:10;;;;;;;12.50;2.67;;;;;;;18.55;91.32;98633.81;5048081;28;20063;-83
2022/09/17 09:29:00;;;;;;;11.18;1.95;;;;;;;19.34;89.57;98777.88;5057256;28;20036;-84
2022/09/17 09:31:58;;;;;;;11.00;1.75;;;;;;;18.88;86.40;98517.41;5057401;28;20187;-84
2022/09/17 09:34:27;;;;;;;11.55;2.40;;;;;;;18.71;84.81;98458.19;5048364;28;20131;-84
2022/09/17 09:37:08;;;;;;;12.40;2.85;;;;;;;18.84;88.32;98722.56;5065394;28;20020;-86
2022/09/17 09:39:34;;;;;;;6.65;1.42;;;;;;;18.13;86.85;98561.84;5057292;28;20012;-89
2022/09/17 09:42:10;;;;;;;10.48;2.42;;;;;;;19.18;86.69;98825.72;5043321;28;20481;-86
2022/09/17 09:44:36;;;;;;;7.70;1.75;;;;;;;20.06;84.39;98861.88;5025088;28;20029;-86
2022/09/17 09:47:07;;;;;;;9.90;2.55;;;;;;;19.24;80.35;98418.06;5040462;28;20357;-87
2022/09/17 09:49:57;;;;;;;11.40;1.90;;;;;;;18.92;83.40;98630.13;5048942;28;20064;-86
2022/09/17 09:52:40;;;;;;;5.95;2.50;;;;;;;18.98;81.89;98577.66;5047914;28;20033;-86
2022/09/17 09:55:30;;;;;;;13.43;1.70;;;;;;;18.06;83.41;98501.88;5046132;28;20029;-87
2022/09/17 09:58:11;;;;;;;9.40;2.40;;;;;;;17.83;89.18;98818.13;5045036;28;20040;-87
2022/09/17 10:00:42;;;;;;;14.88;2.53;;;;;;;18.10;89.19;98893.69;5065037;28;20489;-88
2022/09/17 10:03:31;;;;;;;10.13;2.20;;;;;;;19.07;87.69;99005.25;5060638;28;20036;-89
2022/09/17 10:06:02;;;;;;;10.38;2.13;;;;;;;19.19;84.69;98858.97;5047546;28;20397;-88
2022/09/17 10:08:30;;;;;;;9.15;1.60;;;;;;;19.19;82.35;98716.44;5046663;28;20020;-90
2022/09/17 10:11:11;;;;;;;7.80;2.00;;;;;;;19.90;82.71;98925.25;5046358;28;20037;-88
2022/09/17 10:13:39;;;;;;;7.65;2.13;;;;;;;18.22;79.49;98329.88;5043969;28;20021;-86
2022/09/17 10:16:26;;;;;;;11.73;1.90;;;;;;;18.25;84.96;98804.69;5054058;28;20039;-84
2022/09/17 10:19:03;;;;;;;10.70;1.83;;;;;;;18.52;86.18;98947.00;5066422;28;20039;-84
2022/09/17 10:21:31;;;;;;;7.93;1.42;;;;;;;17.91;86.90;98823.88;5074601;28;20040;-83
2022/09/17 10:23:57;;;;;;;15.68;2.55;;;;;;;17.64;91.14;99045.13;5064424;28;20055;-82
2022/09/17 10:26:26;;;;;;;11.43;2.03;;;;;;;19.22;84.42;99034.28;5060296;28;20806;-83
2022/09/17 10:28:57;;;;;;;6.80;1.50;;;;;;;19.14;79.40;98629.06;5060982;28;20380;-82
2022/09/17 10:31:23;;;;;;;11.07;1.88;;;;;;;18.83;85.51;99018.34;5052857;28;20750;-85
2022/09/17 10:34:00;;;;;;;8.07;2.63;;;;;;;18.44;85.38;98913.13;5064766;28;20028;-85
2022/09/17 10:36:39;;;;;;;5.75;1.70;;;;;;;17.22;86.15;98713.16;5072160;28;20050;-84
2022/09/17 10:39:43;;;;;;;10.27;2.65;;;;;;;18.63;88.08;99210.03;5048085;28;20404;-84
2022/09/17 10:42:14;;;;;;;5.88;1.63;;;;;;;19.93;82.97;99195.56;4984984;28;20367;-84
2022/09/17 10:44:54;;;;;;;11.57;1.60;;;;;;;19.36;79.35;98754.06;4978697;28;20137;-84
2022/09/17 10:47:35;;;;;;;7.18;1.60;;;;;;;18.92;80.17;98781.56;4985854;28;20038;-85
2022/09/17 10:50:15;;;;;;;10.73;1.83;;;;;;;17.56;80.90;98540.22;4991705;28;20613;-85
2022/09/17 10:52:47;;;;;;;11.50;1.88;;;;;;;17.77;84.80;98854.19;4984195;28;20042;-84
2022/09/17 10:55:34;;;;;;;7.53;2.05;;;;;;;17.90;86.74;98999.59;4978241;28;20088;-85
2022/09/17 10:58:06;;;;;;;7.13;1.48;;;;;;;17.38;89.99;99053.97;4998599;28;20046;-86
2022/09/17 11:00:41;;;;;;;12.07;2.28;;;;;;;16.33;97.85;99150.53;4988246;28;20072;-86
2022/09/17 11:03:24;;;;;;;6.78;3.15;;;;;;;16.38;100.00;99781.69;5014515;28;20044;-85
2022/09/17 11:06:14;;;;;;;14.98;2.55;;;;;;;16.00;100.00;99806.94;4995720;28;20103;-87
2022/09/17 11:09:13;;;;;;;8.30;1.60;;;;;;;15.74;100.00;99844.84;4999120;28;20030;-86
2022/09/17 11:11:39;;;;;;;10.35;1.73;;;;;;;15.76;100.00;99953.09;5000300;28;20130;-84
2022/09/17 11:14:22;;;;;;;11.65;2.25;;;;;;;14.93;100.00;99690.41;4982015;28;20033;-84
2022/09/17 11:16:53;;;;;;;9.85;1.80;;;;;;;15.46;100.00;99902.50;4992018;28;20124;-86
2022/09/17 11:19:35;;;;;;;8.38;2.17;;;;;;;15.80;100.00;99893.25;5063616;28;20040;-84
2022/09/17 11:22:22;;;;;;;10.48;2.00;;;;;;;15.49;100.00;99915.53;5022171;28;20123;-83
2022/09/17 11:25:04;;;;;;;12.10;2.25;;;;;;;15.48;100.00;99905.00;5061129;28;20033;-86
2022/09/17 11:27:54;;;;;;;11.23;1.88;;;;;;;15.10;100.00;99917.38;5061669;28;20059;-83
2022/09/17 11:30:22;;;;;;;5.85;2.05;;;;;;;15.70;100.00;100059.72;5027936;28;20047;-85
2022/09/17 11:32:56;;;;;;;9.30;1.70;;;;;;;16.27;100.00;100027.53;5044804;28;20098;-85
2022/09/17 11:35:38;;;;;;;11.90;2.38;;;;;;;16.23;100.00;99797.41;5043604;28;20048;-85
2022/09/17 11:38:16;;;;;;;10.63;2.47;;;;;;;16.29;100.00;100038.09;5043828;28;20032;-87
2022/09/17 11:41:00;;;;;;;10.98;2.33;;;;;;;15.83;100.00;99924.28;5039668;28;20809;-87